createdAt,value
2023-01-30T00:01:57.689Z,6.9
2023-01-30T00:03:57.576Z,6.5
2023-01-30T00:05:57.191Z,6.9
2023-01-30T00:07:57.092Z,6.7
2023-01-30T00:09:56.991Z,6.3
2023-01-30T00:11:56.800Z,6.8
2023-01-30T00:13:56.781Z,6.8
2023-01-30T00:15:56.940Z,7.6
2023-01-30T00:17:56.450Z,6.7
2023-01-30T00:19:56.362Z,6.8
2023-01-30T00:21:56.143Z,7.1
2023-01-30T00:23:55.949Z,7.1
2023-01-30T00:25:56.464Z,7.3
2023-01-30T00:27:56.335Z,8.1
2023-01-30T00:30:02.907Z,7.1
2023-01-30T00:31:55.601Z,7.8
2023-01-30T00:33:57.408Z,7.9
2023-01-30T00:35:56.680Z,7.5
2023-01-30T00:37:56.376Z,7.9
2023-01-30T00:39:54.841Z,8.6
2023-01-30T00:41:54.799Z,7.5
2023-01-30T00:43:54.590Z,8.2
2023-01-30T00:45:54.874Z,8.6
2023-01-30T00:47:54.569Z,7.7
2023-01-30T00:49:54.171Z,8
2023-01-30T00:51:54.511Z,7.9
2023-01-30T00:53:53.900Z,8.3
2023-01-30T00:55:55.271Z,7.6
2023-01-30T00:57:53.702Z,8.1
2023-01-30T00:59:53.501Z,7.6
2023-01-30T01:01:53.571Z,8
2023-01-30T01:03:54.209Z,7.6
2023-01-30T01:05:53.086Z,8.6
2023-01-30T01:07:53.331Z,7.8
2023-01-30T01:09:52.866Z,7.9
2023-01-30T01:11:53.069Z,7.8
2023-01-30T01:13:54.485Z,8.8
2023-01-30T01:15:52.364Z,8.1
2023-01-30T01:17:53.412Z,8
2023-01-30T01:19:52.106Z,8
2023-01-30T01:21:52.128Z,8.8
2023-01-30T01:23:53.392Z,8.7
2023-01-30T01:25:51.648Z,8.7
2023-01-30T01:27:53.310Z,8.6
2023-01-30T01:29:51.517Z,9.2
2023-01-30T01:31:51.351Z,8.6
2023-01-30T01:33:51.910Z,9
2023-01-30T01:35:56.265Z,9
2023-01-30T01:37:53.195Z,8.8
2023-01-30T01:39:50.946Z,9.6
2023-01-30T01:41:51.145Z,9
2023-01-30T01:44:01.172Z,10.2
2023-01-30T01:45:56.236Z,9.5
2023-01-30T01:48:01.183Z,9.6
2023-01-30T01:49:50.006Z,9.7
2023-01-30T01:51:55.605Z,9.9
2023-01-30T01:53:55.325Z,10
2023-01-30T01:55:54.239Z,10.3
2023-01-30T01:57:54.323Z,9.7
2023-01-30T01:59:52.311Z,10.8
2023-01-30T02:01:50.368Z,11.5
2023-01-30T02:03:54.601Z,10.5
2023-01-30T02:05:53.196Z,10.8
2023-01-30T02:07:53.639Z,11.3
2023-01-30T02:09:51.158Z,11.1
2023-01-30T02:11:55.613Z,11.6
2023-01-30T02:13:49.797Z,11.6
2023-01-30T02:15:49.696Z,11.3
2023-01-30T02:17:48.325Z,12.1
2023-01-30T02:19:54.337Z,11.9
2023-01-30T02:22:12.748Z,12.1
2023-01-30T02:24:20.768Z,11.3
2023-01-30T02:26:17.428Z,12.2
2023-01-30T02:28:07.816Z,11.1
2023-01-30T02:30:18.685Z,12.1
2023-01-30T02:31:54.236Z,11.4
2023-01-30T02:33:56.802Z,11.8
2023-01-30T02:35:54.195Z,11.4
2023-01-30T02:38:03.790Z,11.2
2023-01-30T02:40:01.190Z,10.7
2023-01-30T02:41:55.480Z,11.1
2023-01-30T02:43:56.470Z,11.6
2023-01-30T02:45:53.942Z,11.8
2023-01-30T02:47:53.210Z,11.9
2023-01-30T02:49:52.503Z,11.1
2023-01-30T02:51:49.668Z,11.8
2023-01-30T02:53:47.278Z,11.1
2023-01-30T02:55:45.451Z,11.6
2023-01-30T02:57:45.437Z,11.6
2023-01-30T02:59:48.781Z,11.6
2023-01-30T03:02:13.246Z,11.7
2023-01-30T03:04:03.815Z,11.8
2023-01-30T03:06:04.139Z,11.6
2023-01-30T03:07:50.146Z,12.4
2023-01-30T03:09:52.712Z,11.2
2023-01-30T03:11:49.072Z,10.8
2023-01-30T03:13:51.960Z,10.1
2023-01-30T03:15:49.834Z,10.1
2023-01-30T03:17:49.062Z,10.9
2023-01-30T03:19:44.560Z,10.7
2023-01-30T03:21:45.339Z,11
2023-01-30T03:23:45.463Z,11.3
2023-01-30T03:25:45.598Z,11.3
2023-01-30T03:27:44.396Z,10.4
2023-01-30T03:29:43.129Z,11.4
2023-01-30T03:31:43.542Z,12.6
2023-01-30T03:33:42.959Z,12.3
2023-01-30T03:35:43.149Z,13.7
2023-01-30T03:37:42.861Z,12.3
2023-01-30T03:39:44.176Z,13.8
2023-01-30T03:41:42.892Z,12.6
2023-01-30T03:43:42.226Z,11.7
2023-01-30T03:45:43.091Z,12.9
2023-01-30T03:47:42.063Z,12.1
2023-01-30T03:49:41.874Z,12.3
2023-01-30T03:51:41.663Z,11.1
2023-01-30T03:53:41.687Z,13.3
2023-01-30T03:55:41.420Z,12.6
2023-01-30T03:57:41.308Z,13.4
2023-01-30T03:59:42.259Z,14
2023-01-30T04:01:41.561Z,13.2
2023-01-30T04:03:41.307Z,13.7
2023-01-30T04:05:42.406Z,13.9
2023-01-30T04:07:42.769Z,13.1
2023-01-30T04:09:40.766Z,13.3
2023-01-30T04:11:40.403Z,13.3
2023-01-30T04:13:41.487Z,13.9
2023-01-30T04:15:55.032Z,14.1
2023-01-30T04:18:02.151Z,13.8
2023-01-30T04:19:40.090Z,12.8
2023-01-30T04:21:39.957Z,13.7
2023-01-30T04:23:40.300Z,13.6
2023-01-30T04:25:41.182Z,13.2
2023-01-30T04:27:46.056Z,13.3
2023-01-30T04:29:40.371Z,13
2023-01-30T04:31:45.704Z,13.5
2023-01-30T04:33:39.154Z,13.4
2023-01-30T04:35:38.965Z,13.5
2023-01-30T04:37:39.463Z,14
2023-01-30T04:39:38.638Z,16.5
2023-01-30T04:41:39.633Z,14.2
2023-01-30T04:43:53.277Z,12.8
2023-01-30T04:45:41.801Z,13.3
2023-01-30T04:47:38.805Z,13.7
2023-01-30T04:49:39.804Z,14.1
2023-01-30T04:51:38.192Z,13.5
2023-01-30T04:53:37.748Z,13.6
2023-01-30T04:55:37.733Z,12.9
2023-01-30T04:57:37.500Z,13.7
2023-01-30T04:59:39.334Z,13.2
2023-01-30T05:01:38.861Z,13.8
2023-01-30T05:03:37.090Z,13.6
2023-01-30T05:05:37.653Z,13.7
2023-01-30T05:07:36.908Z,13.2
2023-01-30T05:09:36.729Z,13.9
2023-01-30T05:11:37.592Z,14.2
2023-01-30T05:13:36.488Z,13.3
2023-01-30T05:15:38.214Z,15
2023-01-30T05:17:36.376Z,14.2
2023-01-30T05:19:36.004Z,13.1
2023-01-30T05:21:35.984Z,14.1
2023-01-30T05:23:35.868Z,15.2
2023-01-30T05:25:35.924Z,14.6
2023-01-30T05:27:35.577Z,14.3
2023-01-30T05:29:35.430Z,14.1
2023-01-30T05:31:35.875Z,15
2023-01-30T05:33:35.437Z,16.3
2023-01-30T05:35:35.753Z,15.6
2023-01-30T05:37:35.058Z,15.3
2023-01-30T05:39:34.738Z,15.2
2023-01-30T05:41:34.607Z,15.8
2023-01-30T05:43:34.827Z,15.6
2023-01-30T05:45:35.207Z,16
2023-01-30T05:47:34.183Z,15.9
2023-01-30T05:49:34.177Z,16.1
2023-01-30T05:51:34.024Z,15.3
2023-01-30T05:53:34.283Z,14.2
2023-01-30T05:55:33.646Z,14.9
2023-01-30T05:57:33.458Z,14.5
2023-01-30T05:59:33.311Z,14.5
2023-01-30T06:01:33.341Z,14.3
2023-01-30T06:03:33.398Z,13.8
2023-01-30T06:05:33.352Z,14.9
2023-01-30T06:07:32.852Z,15.2
2023-01-30T06:09:32.785Z,15.8
2023-01-30T06:11:32.796Z,14.9
2023-01-30T06:13:32.527Z,14.4
2023-01-30T06:15:32.914Z,14.6
2023-01-30T06:17:32.259Z,14.8
2023-01-30T06:19:31.960Z,14.9
2023-01-30T06:21:31.806Z,14.9
2023-01-30T06:23:32.780Z,15.5
2023-01-30T06:25:31.573Z,14.9
2023-01-30T06:27:31.524Z,15.2
2023-01-30T06:29:31.293Z,15.1
2023-01-30T06:31:31.278Z,14.9
2023-01-30T06:33:31.006Z,15.9
2023-01-30T06:35:31.194Z,14.7
2023-01-30T06:37:30.613Z,15.5
2023-01-30T06:39:30.563Z,16.3
2023-01-30T06:41:30.409Z,16.5
2023-01-30T06:43:30.308Z,15.9
2023-01-30T06:45:30.423Z,16.8
2023-01-30T06:47:30.276Z,17.6
2023-01-30T06:49:30.474Z,17.8
2023-01-30T06:51:29.732Z,17.7
2023-01-30T06:53:29.778Z,17.6
2023-01-30T06:55:29.508Z,17.9
2023-01-30T06:57:29.421Z,17.1
2023-01-30T06:59:29.177Z,18.4
2023-01-30T07:01:29.189Z,17.5
2023-01-30T07:03:29.150Z,17.5
2023-01-30T07:05:29.027Z,18
2023-01-30T07:07:29.023Z,17.7
2023-01-30T07:09:28.549Z,17.2
2023-01-30T07:11:28.643Z,17.9
2023-01-30T07:13:28.285Z,17.3
2023-01-30T07:15:28.616Z,18.9
2023-01-30T07:17:27.965Z,18.2
2023-01-30T07:19:27.814Z,18
2023-01-30T07:21:27.617Z,17.8
2023-01-30T07:23:27.594Z,17.5
2023-01-30T07:25:28.903Z,18.2
2023-01-30T07:27:27.228Z,18.9
2023-01-30T07:29:27.156Z,18.1
2023-01-30T07:31:26.913Z,17.6
2023-01-30T07:33:27.102Z,18.2
2023-01-30T07:35:29.255Z,17.2
2023-01-30T07:37:26.385Z,18.2
2023-01-30T07:39:26.305Z,18.3
2023-01-30T07:41:26.165Z,17.5
2023-01-30T07:43:26.156Z,18.3
2023-01-30T07:45:28.043Z,17.7
2023-01-30T07:47:25.709Z,17.9
2023-01-30T07:49:25.755Z,17.5
2023-01-30T07:51:25.415Z,17.4
2023-01-30T07:53:25.345Z,17.7
2023-01-30T07:55:26.209Z,18.5
2023-01-30T07:57:24.941Z,17.8
2023-01-30T07:59:24.854Z,17.9
2023-01-30T08:01:24.677Z,16.5
2023-01-30T08:03:24.881Z,18.8
2023-01-30T08:05:25.007Z,18.5
2023-01-30T08:07:24.184Z,19.3
2023-01-30T08:09:24.257Z,19.1
2023-01-30T08:11:24.443Z,19.2
2023-01-30T08:13:23.765Z,18.5
2023-01-30T08:15:23.681Z,20.8
2023-01-30T08:17:23.573Z,18.7
2023-01-30T08:19:23.462Z,19.4
2023-01-30T08:21:23.305Z,18.1
2023-01-30T08:23:23.193Z,18.8
2023-01-30T08:25:23.140Z,19.1
2023-01-30T08:27:22.836Z,19.2
2023-01-30T08:29:22.940Z,18.1
2023-01-30T08:31:22.653Z,18.2
2023-01-30T08:33:23.892Z,19.2
2023-01-30T08:35:22.408Z,18.6
2023-01-30T08:37:22.160Z,20.8
2023-01-30T08:39:22.201Z,18.3
2023-01-30T08:41:22.582Z,19.3
2023-01-30T08:43:21.852Z,19.5
2023-01-30T08:45:22.548Z,19
2023-01-30T08:47:21.483Z,18.8
2023-01-30T08:49:21.381Z,18.3
2023-01-30T08:51:21.275Z,17.7
2023-01-30T08:53:22.032Z,18.8
2023-01-30T08:55:21.614Z,19
2023-01-30T08:57:20.823Z,18.2
2023-01-30T08:59:20.569Z,20.2
2023-01-30T09:01:20.705Z,17.9
2023-01-30T09:03:20.376Z,18.2
2023-01-30T09:05:20.314Z,19
2023-01-30T09:07:20.006Z,18.6
2023-01-30T09:09:20.397Z,18
2023-01-30T09:11:19.765Z,18.8
2023-01-30T09:13:19.690Z,18.7
2023-01-30T09:15:19.391Z,17.9
2023-01-30T09:17:19.381Z,17.8
2023-01-30T09:19:19.197Z,17.6
2023-01-30T09:21:19.571Z,19.2
2023-01-30T09:23:18.897Z,17.8
2023-01-30T09:25:18.801Z,19
2023-01-30T09:27:18.590Z,17.1
2023-01-30T09:29:19.080Z,18.5
2023-01-30T09:31:18.508Z,17.6
2023-01-30T09:33:18.417Z,18.4
2023-01-30T09:35:18.189Z,18.4
2023-01-30T09:37:17.914Z,17.8
2023-01-30T09:39:17.920Z,17.4
2023-01-30T09:41:34.799Z,17.3
2023-01-30T09:43:27.744Z,16.5
2023-01-30T09:45:46.597Z,16.6
2023-01-30T09:47:27.653Z,15.9
2023-01-30T09:49:29.435Z,16.6
2023-01-30T09:51:35.499Z,15.8
2023-01-30T09:53:23.948Z,15.8
2023-01-30T09:55:18.697Z,15.4
2023-01-30T09:57:21.622Z,15.5
2023-01-30T09:59:22.931Z,14.1
2023-01-30T10:01:22.920Z,14.2
2023-01-30T10:03:18.676Z,14
2023-01-30T10:05:16.445Z,14.4
2023-01-30T10:07:23.674Z,13.4
2023-01-30T10:09:28.636Z,13.3
2023-01-30T10:11:27.121Z,13.9
2023-01-30T10:13:30.170Z,13.2
2023-01-30T10:15:28.005Z,13
2023-01-30T10:17:32.787Z,13.5
2023-01-30T10:19:36.796Z,12.7
2023-01-30T10:21:26.373Z,13
2023-01-30T10:23:30.434Z,14.6
2023-01-30T10:25:26.059Z,13.5
2023-01-30T10:27:16.912Z,14.7
2023-01-30T10:29:21.510Z,13.9
2023-01-30T10:31:16.128Z,13.4
2023-01-30T10:33:21.832Z,12.4
2023-01-30T10:35:18.736Z,12.1
2023-01-30T10:37:18.567Z,11.8
2023-01-30T10:39:23.850Z,11.5
2023-01-30T10:41:23.789Z,12
2023-01-30T10:43:21.564Z,12.1
2023-01-30T10:45:16.653Z,11.5
2023-01-30T10:47:47.081Z,10.8
2023-01-30T10:49:17.988Z,11.6
2023-01-30T10:51:22.546Z,11.4
2023-01-30T10:53:19.743Z,10.9
2023-01-30T10:55:36.112Z,10.3
2023-01-30T10:57:22.471Z,10.7
2023-01-30T10:59:22.640Z,10.6
2023-01-30T11:01:20.737Z,10.4
2023-01-30T11:03:21.669Z,10.5
2023-01-30T11:05:16.119Z,10.5
2023-01-30T11:07:13.027Z,9.5
2023-01-30T11:09:12.155Z,10
2023-01-30T11:11:28.017Z,10.6
2023-01-30T11:13:16.668Z,10.2
2023-01-30T11:15:11.971Z,10.2
2023-01-30T11:17:17.301Z,9.5
2023-01-30T11:19:21.832Z,10
2023-01-30T11:21:19.154Z,9.8
2023-01-30T11:23:25.049Z,10.3
2023-01-30T11:25:17.014Z,9.5
2023-01-30T11:27:16.961Z,10.3
2023-01-30T11:29:23.421Z,10.2
2023-01-30T11:31:21.350Z,10
2023-01-30T11:33:13.169Z,10.4
2023-01-30T11:35:26.670Z,10.3
2023-01-30T11:37:22.880Z,9.9
2023-01-30T11:39:21.052Z,10
2023-01-30T11:41:19.162Z,10
2023-01-30T11:43:13.110Z,10.2
2023-01-30T11:45:17.704Z,9.5
2023-01-30T11:47:19.951Z,9.5
2023-01-30T11:49:45.153Z,9.3
2023-01-30T11:51:10.636Z,10.2
2023-01-30T11:53:20.878Z,9.6
2023-01-30T11:55:15.757Z,10.9
2023-01-30T11:57:13.334Z,9.8
2023-01-30T11:59:24.236Z,9.8
2023-01-30T12:01:11.043Z,9.3
2023-01-30T12:03:13.177Z,8.7
2023-01-30T12:05:29.919Z,8.7
2023-01-30T12:07:17.802Z,9
2023-01-30T12:09:31.568Z,9
2023-01-30T12:11:25.468Z,9.2
2023-01-30T12:13:18.136Z,8.7
2023-01-30T12:15:22.061Z,9.6
2023-01-30T12:17:16.475Z,9.8
2023-01-30T12:19:28.863Z,9.2
2023-01-30T12:21:20.381Z,9.4
2023-01-30T12:23:14.987Z,8.8
2023-01-30T12:25:15.205Z,8.6
2023-01-30T12:27:15.825Z,8.6
2023-01-30T12:29:22.518Z,9
2023-01-30T12:31:13.136Z,8.8
2023-01-30T12:33:13.875Z,9.3
2023-01-30T12:35:16.160Z,9.2
2023-01-30T12:37:22.310Z,9.1
2023-01-30T12:39:28.299Z,9.3
2023-01-30T12:41:19.811Z,9.3
2023-01-30T12:43:23.633Z,9.1
2023-01-30T12:45:19.931Z,8.7
2023-01-30T12:47:21.020Z,9.2
2023-01-30T12:49:31.328Z,9.2
2023-01-30T12:51:16.332Z,9.3
2023-01-30T12:53:24.465Z,9.5
2023-01-30T12:55:20.699Z,9.5
2023-01-30T12:57:15.530Z,9.1
2023-01-30T12:59:14.399Z,8.6
2023-01-30T13:01:19.929Z,9
2023-01-30T13:03:21.757Z,9.8
2023-01-30T13:05:19.914Z,9.3
2023-01-30T13:07:16.360Z,9.6
2023-01-30T13:09:20.057Z,9.4
2023-01-30T13:11:14.398Z,9
2023-01-30T13:13:14.967Z,9.1
2023-01-30T13:15:15.416Z,9.3
2023-01-30T13:17:19.947Z,8.9
2023-01-30T13:19:10.751Z,9
2023-01-30T13:21:10.530Z,10.2
2023-01-30T13:23:12.278Z,9.6
2023-01-30T13:25:13.894Z,8.9
2023-01-30T13:27:08.949Z,9.2
2023-01-30T13:29:11.651Z,9.2
2023-01-30T13:31:06.244Z,10.2
2023-01-30T13:33:11.327Z,9.8
2023-01-30T13:35:06.283Z,9.4
2023-01-30T13:37:08.186Z,9
2023-01-30T13:39:09.993Z,9.9
2023-01-30T13:41:04.922Z,9.4
2023-01-30T13:43:09.648Z,10.7
2023-01-30T13:45:05.168Z,9.8
2023-01-30T13:47:12.661Z,9.6
2023-01-30T13:49:09.354Z,9.5
2023-01-30T13:51:22.940Z,9.3
2023-01-30T13:53:07.881Z,10.7
2023-01-30T13:55:13.890Z,9.4
2023-01-30T13:57:12.391Z,9.8
2023-01-30T13:59:10.589Z,9.7
2023-01-30T14:01:02.078Z,10.3
2023-01-30T14:03:23.943Z,10.3
2023-01-30T14:05:01.573Z,11.1
2023-01-30T14:07:08.662Z,14.1
2023-01-30T14:09:05.492Z,10.7
2023-01-30T14:11:02.140Z,20.2
2023-01-30T14:13:05.352Z,15.8
2023-01-30T14:15:03.862Z,16.2
2023-01-30T14:17:11.497Z,18
2023-01-30T14:19:19.981Z,15.1
2023-01-30T14:21:13.903Z,19.8
2023-01-30T14:23:03.791Z,20
2023-01-30T14:25:29.452Z,17.4
2023-01-30T14:27:03.057Z,14.4
2023-01-30T14:29:00.027Z,23.6
2023-01-30T14:31:01.563Z,15.1
2023-01-30T14:33:01.642Z,12.4
2023-01-30T14:35:20.049Z,18.5
2023-01-30T14:36:59.430Z,14.9
2023-01-30T14:39:28.768Z,15.8
2023-01-30T14:41:24.753Z,9.8
2023-01-30T14:43:28.211Z,9.1
2023-01-30T14:45:03.514Z,8.9
2023-01-30T14:46:58.933Z,8.8
2023-01-30T14:49:04.125Z,8.7
2023-01-30T14:51:18.938Z,9.4
2023-01-30T14:52:58.371Z,9
2023-01-30T14:54:58.335Z,9.1
2023-01-30T14:57:00.762Z,9
2023-01-30T14:59:03.221Z,8.9
2023-01-30T15:00:59.140Z,8.9
2023-01-30T15:03:01.520Z,9.2
2023-01-30T15:05:05.570Z,8.8
2023-01-30T15:07:00.357Z,9.6
2023-01-30T15:08:57.343Z,8.8
2023-01-30T15:11:07.902Z,8.8
2023-01-30T15:13:11.790Z,8.8
2023-01-30T15:15:08.996Z,9.5
2023-01-30T15:17:06.756Z,8.4
2023-01-30T15:19:18.957Z,9.1
2023-01-30T15:21:21.254Z,9.1
2023-01-30T15:23:17.206Z,9.5
2023-01-30T15:25:15.741Z,9.3
2023-01-30T15:27:04.628Z,9.5
2023-01-30T15:29:13.464Z,9.1
2023-01-30T15:31:06.320Z,9.3
2023-01-30T15:33:14.020Z,9.7
2023-01-30T15:34:57.926Z,9.3
2023-01-30T15:36:55.943Z,9.3
2023-01-30T15:38:58.550Z,10.1
2023-01-30T15:40:57.362Z,14.5
2023-01-30T15:43:11.749Z,10.6
2023-01-30T15:45:01.968Z,39.9
2023-01-30T15:47:14.192Z,20.5
2023-01-30T15:49:06.069Z,17
2023-01-30T15:50:58.557Z,17.4
2023-01-30T15:52:54.845Z,16.5
2023-01-30T15:54:59.697Z,21.1
2023-01-30T15:56:58.154Z,40.6
2023-01-30T15:58:57.323Z,11.3
2023-01-30T16:00:57.265Z,9.8
2023-01-30T16:02:54.903Z,11.5
2023-01-30T16:05:04.676Z,11.6
2023-01-30T16:06:53.812Z,9.4
2023-01-30T16:08:57.123Z,8.5
2023-01-30T16:10:54.456Z,8.8
2023-01-30T16:12:55.422Z,8.2
2023-01-30T16:14:53.492Z,7.7
2023-01-30T16:16:57.859Z,8
2023-01-30T16:18:56.705Z,8.4
2023-01-30T16:21:01.914Z,7.7
2023-01-30T16:22:53.353Z,7.7
2023-01-30T16:24:54.849Z,7.9
2023-01-30T16:26:58.144Z,7
2023-01-30T16:29:00.673Z,7.8
2023-01-30T16:31:02.405Z,7.4
2023-01-30T16:32:56.179Z,7.7
2023-01-30T16:35:16.355Z,8.4
2023-01-30T16:36:53.509Z,8.2
2023-01-30T16:38:53.609Z,7.7
2023-01-30T16:40:51.789Z,7.4
2023-01-30T16:42:57.013Z,7.9
2023-01-30T16:44:54.005Z,7
2023-01-30T16:46:56.609Z,7.7
2023-01-30T16:48:51.386Z,7.4
2023-01-30T16:51:11.000Z,7.3
2023-01-30T16:52:54.184Z,8
2023-01-30T16:54:53.233Z,7.8
2023-01-30T16:56:54.150Z,7.7
2023-01-30T16:58:54.800Z,10.7
2023-01-30T17:00:51.346Z,13.5
2023-01-30T17:02:54.081Z,11.1
2023-01-30T17:04:50.525Z,12.9
2023-01-30T17:06:55.503Z,9.2
2023-01-30T17:08:51.560Z,8.6
2023-01-30T17:10:54.022Z,7.4
2023-01-30T17:12:50.144Z,8.2
2023-01-30T17:14:49.857Z,7.9
2023-01-30T17:17:01.152Z,7.4
2023-01-30T17:18:50.869Z,8.1
2023-01-30T17:20:49.578Z,10.1
2023-01-30T17:22:50.827Z,9.5
2023-01-30T17:24:49.853Z,9.1
2023-01-30T17:26:52.072Z,9.1
2023-01-30T17:28:49.250Z,8.5
2023-01-30T17:30:49.256Z,8.1
2023-01-30T17:32:48.866Z,7.6
2023-01-30T17:34:48.861Z,6.8
2023-01-30T17:36:50.347Z,7.8
2023-01-30T17:38:48.822Z,6.9
2023-01-30T17:40:48.831Z,7.6
2023-01-30T17:42:48.424Z,7.2
2023-01-30T17:44:49.163Z,7
2023-01-30T17:46:49.101Z,8.6
2023-01-30T17:48:48.248Z,7.8
2023-01-30T17:50:48.159Z,7.2
2023-01-30T17:52:48.099Z,7.1
2023-01-30T17:54:47.964Z,7.2
2023-01-30T17:56:52.483Z,7.3
2023-01-30T17:58:47.707Z,6.6
2023-01-30T18:00:47.672Z,7
2023-01-30T18:02:47.638Z,6.9
2023-01-30T18:04:47.486Z,7.1
2023-01-30T18:06:50.161Z,6.7
2023-01-30T18:08:47.598Z,6.8
2023-01-30T18:10:47.074Z,7.1
2023-01-30T18:12:46.956Z,6.8
2023-01-30T18:14:46.847Z,6
2023-01-30T18:16:46.922Z,6.5
2023-01-30T18:18:46.632Z,6.5
2023-01-30T18:20:47.546Z,6.6
2023-01-30T18:22:46.470Z,6.2
2023-01-30T18:24:46.303Z,6.3
2023-01-30T18:26:46.829Z,6.5
2023-01-30T18:28:47.493Z,6.6
2023-01-30T18:30:46.121Z,6.3
2023-01-30T18:32:52.611Z,5.6
2023-01-30T18:34:45.860Z,6.3
2023-01-30T18:36:45.753Z,6.5
2023-01-30T18:38:47.642Z,6.3
2023-01-30T18:40:45.535Z,6
2023-01-30T18:42:45.454Z,5.8
2023-01-30T18:44:45.343Z,6.2
2023-01-30T18:46:45.249Z,5.8
2023-01-30T18:48:46.246Z,5.7
2023-01-30T18:50:45.115Z,6.2
2023-01-30T18:52:44.947Z,5.7
2023-01-30T18:54:44.826Z,5.5
2023-01-30T18:56:44.822Z,5.8
2023-01-30T18:58:44.659Z,5.5
2023-01-30T19:00:44.504Z,5.7
2023-01-30T19:02:44.533Z,5.7
2023-01-30T19:04:44.246Z,5.9
2023-01-30T19:06:44.180Z,6
2023-01-30T19:08:44.155Z,5.5
2023-01-30T19:10:44.057Z,5.1
2023-01-30T19:12:46.162Z,5.7
2023-01-30T19:14:43.736Z,5.4
2023-01-30T19:16:43.739Z,5.6
2023-01-30T19:18:43.499Z,6.3
2023-01-30T19:20:43.344Z,5.9
2023-01-30T19:22:43.253Z,6.3
2023-01-30T19:24:43.269Z,5.7
2023-01-30T19:26:43.130Z,6.3
2023-01-30T19:28:43.945Z,6.9
2023-01-30T19:30:42.941Z,6.5
2023-01-30T19:32:42.680Z,7.4
2023-01-30T19:34:43.233Z,6.8
2023-01-30T19:36:42.466Z,6.2
2023-01-30T19:38:43.677Z,6.5
2023-01-30T19:40:43.895Z,7
2023-01-30T19:42:44.481Z,6.5
2023-01-30T19:44:41.897Z,6.7
2023-01-30T19:46:41.902Z,6.5
2023-01-30T19:48:42.969Z,6.5
2023-01-30T19:50:41.660Z,6.4
2023-01-30T19:52:41.659Z,5.6
2023-01-30T19:54:41.360Z,5.6
2023-01-30T19:56:41.535Z,5.7
2023-01-30T19:58:41.760Z,6
2023-01-30T20:00:41.156Z,6.1
2023-01-30T20:02:41.074Z,6.3
2023-01-30T20:04:40.894Z,5.5
2023-01-30T20:06:42.588Z,6
2023-01-30T20:08:41.735Z,5.6
2023-01-30T20:10:40.471Z,5.7
2023-01-30T20:12:40.523Z,5.6
2023-01-30T20:14:40.365Z,5.5
2023-01-30T20:16:40.466Z,5.9
2023-01-30T20:18:40.743Z,6.1
2023-01-30T20:20:41.054Z,5.3
2023-01-30T20:22:39.849Z,5.3
2023-01-30T20:24:40.058Z,5.8
2023-01-30T20:26:40.427Z,5.4
2023-01-30T20:28:40.261Z,5.8
2023-01-30T20:30:39.915Z,6.1
2023-01-30T20:32:39.425Z,5.6
2023-01-30T20:34:39.266Z,5.7
2023-01-30T20:36:39.687Z,5.2
2023-01-30T20:38:41.640Z,5.1
2023-01-30T20:40:38.874Z,5.2
2023-01-30T20:42:38.790Z,5
2023-01-30T20:44:38.674Z,5.2
2023-01-30T20:46:41.457Z,4.9
2023-01-30T20:48:39.221Z,5.7
2023-01-30T20:50:38.443Z,5.1
2023-01-30T20:52:38.371Z,4.9
2023-01-30T20:54:38.346Z,5.3
2023-01-30T20:56:40.160Z,4.9
2023-01-30T20:58:38.276Z,4.9
2023-01-30T21:00:38.248Z,4.7
2023-01-30T21:02:38.233Z,5
2023-01-30T21:04:37.537Z,4.8
2023-01-30T21:06:44.066Z,4.7
2023-01-30T21:08:38.297Z,4.5
2023-01-30T21:10:37.167Z,4.6
2023-01-30T21:12:37.091Z,4.8
2023-01-30T21:14:37.043Z,4.8
2023-01-30T21:16:38.391Z,4.9
2023-01-30T21:18:39.351Z,4.9
2023-01-30T21:20:36.768Z,4.8
2023-01-30T21:22:36.964Z,4.8
2023-01-30T21:24:37.021Z,4.9
2023-01-30T21:26:39.697Z,4.7
2023-01-30T21:28:37.030Z,4.3
2023-01-30T21:30:36.901Z,4.5
2023-01-30T21:32:35.975Z,4.5
2023-01-30T21:34:35.912Z,4.7
2023-01-30T21:36:36.742Z,4.8
2023-01-30T21:38:35.894Z,4.7
2023-01-30T21:40:35.408Z,4.5
2023-01-30T21:42:35.311Z,4.6
2023-01-30T21:44:36.811Z,4.6
2023-01-30T21:46:39.041Z,4.8
2023-01-30T21:48:34.960Z,4.8
2023-01-30T21:50:34.856Z,4.3
2023-01-30T21:52:34.834Z,4.5
2023-01-30T21:54:34.619Z,4.6
2023-01-30T21:56:35.056Z,5
2023-01-30T21:58:34.764Z,4.5
2023-01-30T22:00:34.212Z,4.6
2023-01-30T22:02:34.133Z,4.6
2023-01-30T22:04:34.606Z,4.4
2023-01-30T22:06:34.908Z,4.7
2023-01-30T22:08:33.900Z,4.8
2023-01-30T22:10:33.599Z,4.2
2023-01-30T22:12:34.986Z,4.3
2023-01-30T22:14:33.350Z,4.4
2023-01-30T22:16:33.748Z,4.1
2023-01-30T22:18:34.151Z,4.4
2023-01-30T22:20:32.916Z,4.1
2023-01-30T22:22:32.817Z,4.2
2023-01-30T22:24:32.724Z,4.4
2023-01-30T22:26:32.703Z,4.1
2023-01-30T22:28:32.598Z,4.3
2023-01-30T22:30:32.372Z,4.2
2023-01-30T22:32:32.187Z,4.2
2023-01-30T22:34:33.540Z,4.8
2023-01-30T22:36:33.355Z,4.4
2023-01-30T22:38:32.668Z,4.3
2023-01-30T22:40:31.585Z,4.2
2023-01-30T22:42:31.434Z,4.2
2023-01-30T22:44:31.378Z,4.4
2023-01-30T22:46:33.742Z,4.1
2023-01-30T22:48:32.120Z,4.3
2023-01-30T22:50:30.981Z,4.3
2023-01-30T22:52:30.740Z,4.6
2023-01-30T22:54:30.786Z,4.2
2023-01-30T22:56:35.944Z,4.2
2023-01-30T22:58:31.128Z,4.2
2023-01-30T23:00:30.233Z,4.3
2023-01-30T23:02:30.080Z,4.6
2023-01-30T23:04:29.947Z,4.4
2023-01-30T23:06:30.724Z,4.4
2023-01-30T23:08:31.213Z,4.3
2023-01-30T23:10:29.568Z,4.1
2023-01-30T23:12:29.769Z,3.8
2023-01-30T23:14:29.309Z,3.8
2023-01-30T23:16:31.703Z,3.9
2023-01-30T23:18:29.107Z,4.1
2023-01-30T23:20:30.128Z,3.8
2023-01-30T23:22:28.849Z,3.8
2023-01-30T23:24:28.700Z,3.9
2023-01-30T23:26:31.398Z,3.7
2023-01-30T23:28:28.640Z,4.2
2023-01-30T23:30:28.258Z,3.9
2023-01-30T23:32:28.403Z,3.8
2023-01-30T23:34:28.437Z,3.5
2023-01-30T23:36:28.675Z,3.7
2023-01-30T23:38:27.782Z,4
2023-01-30T23:40:27.605Z,4
2023-01-30T23:42:27.526Z,3.8
2023-01-30T23:44:27.379Z,3.9
2023-01-30T23:46:29.107Z,3.4
2023-01-30T23:48:27.070Z,3.7
2023-01-30T23:50:27.422Z,3.6
2023-01-30T23:52:26.920Z,3.4
2023-01-30T23:54:27.045Z,3.6
2023-01-30T23:56:28.949Z,3.5
2023-01-30T23:58:26.642Z,3.9
